createdAt,value
2022-09-05T00:02:39.283Z,8.10
2022-09-05T00:06:10.488Z,10.82
2022-09-05T00:09:41.320Z,12.13
2022-09-05T00:12:47.391Z,9.23
2022-09-05T00:16:31.315Z,7.53
2022-09-05T00:24:19.237Z,7.22
2022-09-05T00:24:25.043Z,10.27
2022-09-05T00:26:50.602Z,9.98
2022-09-05T00:31:07.140Z,8.70
2022-09-05T00:34:14.287Z,7.20
2022-09-05T00:37:47.995Z,6.75
2022-09-05T00:41:11.138Z,7.40
2022-09-05T00:44:14.749Z,7.47
2022-09-05T00:47:48.226Z,7.67
2022-09-05T00:51:01.439Z,8.27
2022-09-05T00:54:40.167Z,7.20
2022-09-05T00:58:02.066Z,7.75
2022-09-05T01:01:25.672Z,10.15
2022-09-05T01:04:34.343Z,6.57
2022-09-05T01:08:02.207Z,8.67
2022-09-05T01:11:23.382Z,8.25
2022-09-05T01:14:37.512Z,9.23
2022-09-05T01:18:00.356Z,9.25
2022-09-05T01:21:09.241Z,9.53
2022-09-05T01:24:39.140Z,8.70
2022-09-05T01:29:14.328Z,9.10
2022-09-05T01:31:37.998Z,9.48
2022-09-05T01:35:06.007Z,8.13
2022-09-05T01:39:02.817Z,8.43
2022-09-05T01:42:41.618Z,9.13
2022-09-05T01:46:16.860Z,8.45
2022-09-05T01:49:49.864Z,11.48
2022-09-05T01:53:26.047Z,9.23
2022-09-05T01:56:54.924Z,9.10
2022-09-05T02:00:30.839Z,11.02
2022-09-05T02:03:33.795Z,9.43
2022-09-05T02:06:46.133Z,9.98
2022-09-05T02:09:58.240Z,9.60
2022-09-05T02:13:19.219Z,9.13
2022-09-05T02:16:38.266Z,7.40
2022-09-05T02:19:52.303Z,10.55
2022-09-05T02:23:34.795Z,8.73
2022-09-05T02:26:47.049Z,8.30
2022-09-05T02:29:57.989Z,10.73
2022-09-05T02:33:26.243Z,9.70
2022-09-05T02:36:32.348Z,9.00
2022-09-05T02:44:31.161Z,9.55
2022-09-05T02:45:09.269Z,10.18
2022-09-05T02:47:18.941Z,8.53
2022-09-05T02:57:23.172Z,13.13
2022-09-05T02:57:32.761Z,10.43
2022-09-05T02:58:21.328Z,9.52
2022-09-05T03:01:45.602Z,10.30
2022-09-05T03:04:55.256Z,10.53
2022-09-05T03:08:19.574Z,8.32
2022-09-05T03:12:00.209Z,9.52
2022-09-05T03:15:29.603Z,13.75
2022-09-05T03:19:06.939Z,11.80
2022-09-05T03:22:16.114Z,9.03
2022-09-05T03:25:56.079Z,10.88
2022-09-05T03:29:05.795Z,11.73
2022-09-05T03:32:42.064Z,12.43
2022-09-05T03:36:26.098Z,10.63
2022-09-05T03:40:00.734Z,18.83
2022-09-05T03:43:49.134Z,16.60
2022-09-05T03:47:23.320Z,22.25
2022-09-05T03:56:50.244Z,11.63
2022-09-05T03:57:20.726Z,15.27
2022-09-05T03:58:02.136Z,13.63
2022-09-05T04:03:00.037Z,14.15
2022-09-05T04:08:24.099Z,12.05
2022-09-05T04:08:48.272Z,14.45
2022-09-05T04:11:56.640Z,15.13
2022-09-05T04:15:36.550Z,13.80
2022-09-05T04:18:50.740Z,15.75
2022-09-05T04:22:33.856Z,12.57
2022-09-05T04:25:58.516Z,15.65
2022-09-05T04:29:18.163Z,12.52
2022-09-05T04:32:54.169Z,12.83
2022-09-05T04:36:03.537Z,17.00
2022-09-05T04:39:25.464Z,14.38
2022-09-05T04:42:29.006Z,19.55
2022-09-05T04:45:41.887Z,13.48
2022-09-05T04:49:04.750Z,14.03
2022-09-05T04:52:42.376Z,18.12
2022-09-05T04:55:51.158Z,12.50
2022-09-05T05:01:52.384Z,16.02
2022-09-05T05:06:08.360Z,17.77
2022-09-05T05:06:43.781Z,13.10
2022-09-05T05:10:30.341Z,15.27
2022-09-05T05:17:55.479Z,14.57
2022-09-05T05:18:06.249Z,17.25
2022-09-05T05:20:41.657Z,16.10
2022-09-05T05:23:54.012Z,19.23
2022-09-05T05:27:33.439Z,17.90
2022-09-05T05:30:36.823Z,15.10
2022-09-05T05:33:44.803Z,16.70
2022-09-05T05:36:56.278Z,15.90
2022-09-05T05:40:12.866Z,21.73
2022-09-05T05:43:29.848Z,21.45
2022-09-05T05:46:40.242Z,17.58
2022-09-05T05:49:58.057Z,22.67
2022-09-05T05:53:07.164Z,20.13
2022-09-05T05:56:32.244Z,19.17
2022-09-05T06:00:00.672Z,21.00
2022-09-05T06:03:41.380Z,23.90
2022-09-05T06:07:03.731Z,16.30
2022-09-05T06:14:55.185Z,20.17
2022-09-05T06:14:58.126Z,15.93
2022-09-05T06:18:18.286Z,15.63
2022-09-05T06:22:19.238Z,14.60
2022-09-05T06:25:45.655Z,15.50
2022-09-05T06:29:08.832Z,13.50
2022-09-05T06:32:28.766Z,15.57
2022-09-05T06:35:53.380Z,16.02
2022-09-05T06:39:13.045Z,18.90
2022-09-05T06:42:47.191Z,14.43
2022-09-05T06:46:04.401Z,13.67
2022-09-05T06:49:42.832Z,18.65
2022-09-05T06:53:23.494Z,16.62
2022-09-05T06:56:49.430Z,13.85
2022-09-05T07:00:10.291Z,15.53
2022-09-05T07:04:33.360Z,13.73
2022-09-05T07:07:45.936Z,11.50
2022-09-05T07:11:02.410Z,8.15
2022-09-05T07:14:24.825Z,10.73
2022-09-05T07:18:06.158Z,17.17
2022-09-05T07:21:26.312Z,9.03
2022-09-05T07:24:54.799Z,8.38
2022-09-05T07:28:29.933Z,13.00
2022-09-05T07:31:39.106Z,8.68
2022-09-05T07:34:46.211Z,9.43
2022-09-05T07:38:14.810Z,8.90
2022-09-05T07:41:27.082Z,8.23
2022-09-05T07:44:34.800Z,8.40
2022-09-05T07:48:04.295Z,8.15
2022-09-05T07:56:32.058Z,9.90
2022-09-05T07:56:51.279Z,8.70
2022-09-05T07:58:15.043Z,13.15
2022-09-05T08:01:22.750Z,9.90
2022-09-05T08:04:32.898Z,8.07
2022-09-05T08:07:46.701Z,12.90
2022-09-05T08:11:23.587Z,8.30
2022-09-05T08:15:05.515Z,11.90
2022-09-05T08:18:21.804Z,20.15
2022-09-05T08:21:52.563Z,10.18
2022-09-05T08:25:12.354Z,8.30
2022-09-05T08:28:51.417Z,7.83
2022-09-05T08:31:56.851Z,15.57
2022-09-05T08:35:27.143Z,8.77
2022-09-05T08:38:40.358Z,8.67
2022-09-05T08:42:09.795Z,8.82
2022-09-05T08:46:39.461Z,8.13
2022-09-05T08:49:37.971Z,9.13
2022-09-05T08:53:32.519Z,8.57
2022-09-05T08:56:35.201Z,11.97
2022-09-05T09:00:19.336Z,7.68
2022-09-05T09:03:17.983Z,7.87
2022-09-05T09:07:40.964Z,18.80
2022-09-05T09:10:42.598Z,7.83
2022-09-05T09:13:56.464Z,17.77
2022-09-05T09:17:19.368Z,10.35
2022-09-05T09:21:03.869Z,8.77
2022-09-05T09:24:12.559Z,6.85
2022-09-05T09:27:56.062Z,8.23
2022-09-05T09:31:37.963Z,9.47
2022-09-05T09:34:53.099Z,9.50
2022-09-05T09:38:34.489Z,8.70
2022-09-05T09:41:52.740Z,6.93
2022-09-05T09:45:34.569Z,8.07
2022-09-05T09:48:56.120Z,11.17
2022-09-05T09:52:21.333Z,8.93
2022-09-05T09:55:43.240Z,8.57
2022-09-05T09:59:05.705Z,11.70
2022-09-05T10:05:33.855Z,7.03
2022-09-05T10:10:58.386Z,6.60
2022-09-05T10:14:49.499Z,6.82
2022-09-05T10:18:17.082Z,8.98
2022-09-05T10:21:39.322Z,8.40
2022-09-05T10:24:51.236Z,6.60
2022-09-05T10:27:57.377Z,8.68
2022-09-05T10:33:14.035Z,8.13
2022-09-05T10:35:07.644Z,6.43
2022-09-05T10:38:43.212Z,6.87
2022-09-05T10:42:09.064Z,8.13
2022-09-05T10:45:30.189Z,7.40
2022-09-05T10:48:54.814Z,6.25
2022-09-05T10:52:18.766Z,6.62
2022-09-05T10:55:26.498Z,5.83
2022-09-05T11:00:45.792Z,6.10
2022-09-05T11:02:29.553Z,6.95
2022-09-05T11:05:45.079Z,5.70
2022-09-05T11:09:26.168Z,5.60
2022-09-05T11:12:32.993Z,7.17
2022-09-05T11:16:04.767Z,5.97
2022-09-05T11:19:35.269Z,6.40
2022-09-05T11:22:40.559Z,5.50
2022-09-05T11:25:46.423Z,7.32
2022-09-05T11:29:00.575Z,6.25
2022-09-05T11:35:21.708Z,6.43
2022-09-05T11:40:00.279Z,6.03
2022-09-05T11:40:26.643Z,5.60
2022-09-05T11:43:57.499Z,8.13
2022-09-05T11:47:43.419Z,7.30
2022-09-05T11:51:28.305Z,6.27
2022-09-05T11:54:55.948Z,8.15
2022-09-05T11:58:53.831Z,5.55
2022-09-05T12:02:16.826Z,6.32
2022-09-05T12:06:11.649Z,6.30
2022-09-05T12:09:54.872Z,6.23
2022-09-05T12:13:09.872Z,5.07
2022-09-05T12:16:36.371Z,6.12
2022-09-05T12:19:59.203Z,9.00
2022-09-05T12:24:13.547Z,4.80
2022-09-05T12:27:39.246Z,6.53
2022-09-05T12:31:33.738Z,5.35
2022-09-05T12:36:04.149Z,5.43
2022-09-05T12:40:57.991Z,6.78
2022-09-05T12:41:43.897Z,5.63
2022-09-05T12:45:09.321Z,6.33
2022-09-05T12:48:39.480Z,10.32
2022-09-05T12:51:57.960Z,7.05
2022-09-05T12:55:17.317Z,7.05
2022-09-05T13:03:01.068Z,6.97
2022-09-05T13:03:07.761Z,5.17
2022-09-05T13:05:51.914Z,5.87
2022-09-05T13:09:17.395Z,6.22
2022-09-05T13:15:02.405Z,5.43
2022-09-05T13:15:58.208Z,9.33
2022-09-05T13:19:24.408Z,5.43
2022-09-05T13:22:28.968Z,6.80
2022-09-05T13:25:34.519Z,5.35
2022-09-05T13:28:48.114Z,5.75
2022-09-05T13:38:04.294Z,5.67
2022-09-05T13:38:17.981Z,6.07
2022-09-05T13:39:07.782Z,4.82
2022-09-05T13:42:18.441Z,6.25
2022-09-05T13:45:22.908Z,9.10
2022-09-05T13:52:29.252Z,6.67
2022-09-05T13:55:46.261Z,6.68
2022-09-05T13:58:57.331Z,5.20
2022-09-05T14:02:29.949Z,6.32
2022-09-05T14:06:45.122Z,5.27
2022-09-05T14:10:15.815Z,5.97
2022-09-05T14:13:44.763Z,5.80
2022-09-05T14:17:50.403Z,4.40
2022-09-05T14:20:50.229Z,5.72
2022-09-05T14:24:27.335Z,9.53
2022-09-05T14:27:33.228Z,7.10
2022-09-05T14:33:35.514Z,11.07
2022-09-05T14:37:46.363Z,6.60
2022-09-05T14:39:03.813Z,4.85
2022-09-05T14:42:15.849Z,5.57
2022-09-05T14:45:37.289Z,5.77
2022-09-05T14:49:10.937Z,5.60
2022-09-05T14:52:25.457Z,5.35
2022-09-05T14:55:29.147Z,6.22
2022-09-05T15:02:44.927Z,4.93
2022-09-05T15:02:48.046Z,6.53
2022-09-05T15:05:31.843Z,6.82
2022-09-05T15:09:28.613Z,8.38
2022-09-05T15:12:23.425Z,5.57
2022-09-05T15:15:29.008Z,5.17
2022-09-05T15:18:37.661Z,6.67
2022-09-05T15:21:41.654Z,7.00
2022-09-05T15:24:44.505Z,5.68
2022-09-05T15:27:49.815Z,7.15
2022-09-05T15:31:01.533Z,4.80
2022-09-05T15:34:26.508Z,8.00
2022-09-05T15:37:40.686Z,7.82
2022-09-05T15:40:43.837Z,7.65
2022-09-05T15:44:09.262Z,6.22
2022-09-05T15:47:22.481Z,6.27
2022-09-05T15:50:26.835Z,5.00
2022-09-05T15:53:36.887Z,10.85
2022-09-05T15:56:48.046Z,7.90
2022-09-05T16:00:00.338Z,7.18
2022-09-05T16:05:56.114Z,7.20
2022-09-05T16:10:38.654Z,5.47
2022-09-05T16:10:50.857Z,5.07
2022-09-05T16:13:53.151Z,10.52
2022-09-05T16:23:14.245Z,7.18
2022-09-05T16:23:24.442Z,6.20
2022-09-05T16:24:23.511Z,6.13
2022-09-05T16:27:52.668Z,5.45
2022-09-05T16:31:19.675Z,8.07
2022-09-05T16:34:42.986Z,6.65
2022-09-05T16:37:53.209Z,7.07
2022-09-05T16:41:09.617Z,8.13
2022-09-05T16:44:19.752Z,7.97
2022-09-05T16:47:36.555Z,9.43
2022-09-05T16:50:52.743Z,7.93
2022-09-05T16:54:11.138Z,7.47
2022-09-05T16:57:29.298Z,6.57
2022-09-05T17:00:54.993Z,8.88
2022-09-05T17:04:16.060Z,8.90
2022-09-05T17:07:30.080Z,8.77
2022-09-05T17:10:42.693Z,9.50
2022-09-05T17:13:46.051Z,13.13
2022-09-05T17:16:56.900Z,11.12
2022-09-05T17:20:06.952Z,9.38
2022-09-05T17:26:17.520Z,12.13
2022-09-05T17:29:33.329Z,12.67
2022-09-05T17:34:18.731Z,10.32
2022-09-05T17:37:36.317Z,8.98
2022-09-05T17:40:43.143Z,8.93
2022-09-05T17:43:57.445Z,11.63
2022-09-05T17:47:19.658Z,9.73
2022-09-05T17:50:51.429Z,10.95
2022-09-05T17:54:00.588Z,8.27
2022-09-05T17:57:28.652Z,9.50
2022-09-05T18:00:48.851Z,6.70
2022-09-05T18:04:16.053Z,10.00
2022-09-05T18:07:43.494Z,9.45
2022-09-05T18:11:14.222Z,8.30
2022-09-05T18:14:25.302Z,8.20
2022-09-05T18:17:55.871Z,9.20
2022-09-05T18:21:21.646Z,12.47
2022-09-05T18:24:37.974Z,9.85
2022-09-05T18:28:22.855Z,11.32
2022-09-05T18:31:42.577Z,10.85
2022-09-05T18:35:37.578Z,10.77
2022-09-05T18:38:51.617Z,9.90
2022-09-05T18:42:33.703Z,11.12
2022-09-05T18:45:52.658Z,11.30
2022-09-05T18:50:21.718Z,10.60
2022-09-05T18:52:40.466Z,9.80
2022-09-05T18:56:22.361Z,9.37
2022-09-05T18:59:39.023Z,8.73
2022-09-05T19:02:51.409Z,8.48
2022-09-05T19:06:36.226Z,8.13
2022-09-05T19:09:36.704Z,10.80
2022-09-05T19:12:53.737Z,11.47
2022-09-05T19:16:33.245Z,10.43
2022-09-05T19:19:28.403Z,12.02
2022-09-05T19:23:10.825Z,10.48
2022-09-05T19:26:09.979Z,10.03
2022-09-05T19:36:51.245Z,7.62
2022-09-05T19:36:58.757Z,8.70
2022-09-05T19:37:15.106Z,9.80
2022-09-05T19:45:29.217Z,11.38
2022-09-05T19:47:40.242Z,8.40
2022-09-05T19:47:42.045Z,6.30
2022-09-05T19:50:12.331Z,6.53
2022-09-05T19:53:18.791Z,7.95
2022-09-05T19:56:24.866Z,9.18
2022-09-05T19:59:35.187Z,8.17
2022-09-05T20:02:38.134Z,9.23
2022-09-05T20:05:42.196Z,7.25
2022-09-05T20:08:45.848Z,7.15
2022-09-05T20:11:58.525Z,8.00
2022-09-05T20:15:23.957Z,9.73
2022-09-05T20:18:42.380Z,10.73
2022-09-05T20:21:45.199Z,8.98
2022-09-05T20:24:49.932Z,8.80
2022-09-05T20:27:53.522Z,9.98
2022-09-05T20:31:08.444Z,10.63
2022-09-05T20:35:32.981Z,9.20
2022-09-05T20:43:11.996Z,8.50
2022-09-05T20:43:31.960Z,8.80
2022-09-05T20:44:40.248Z,8.15
2022-09-05T20:54:13.919Z,10.20
2022-09-05T20:54:16.795Z,9.90
2022-09-05T20:54:42.519Z,11.50
2022-09-05T20:57:49.516Z,9.15
2022-09-05T21:01:19.946Z,9.77
2022-09-05T21:04:33.783Z,9.33
2022-09-05T21:07:39.098Z,13.03
2022-09-05T21:10:56.762Z,9.88
2022-09-05T21:14:06.659Z,10.90
2022-09-05T21:17:15.657Z,13.62
2022-09-05T21:20:24.036Z,11.80
2022-09-05T21:23:36.026Z,12.80
2022-09-05T21:26:38.853Z,15.68
2022-09-05T21:29:43.465Z,12.15
2022-09-05T21:32:48.437Z,11.63
2022-09-05T21:35:57.723Z,11.53
2022-09-05T21:39:00.315Z,12.50
2022-09-05T21:42:11.545Z,13.77
2022-09-05T21:47:40.215Z,12.48
2022-09-05T21:48:50.622Z,14.40
2022-09-05T21:51:59.511Z,12.27
2022-09-05T21:59:16.154Z,12.67
2022-09-05T21:59:26.027Z,9.52
2022-09-05T22:01:57.474Z,9.68
2022-09-05T22:05:03.189Z,9.38
2022-09-05T22:08:07.405Z,9.00
2022-09-05T22:11:12.797Z,11.63
2022-09-05T22:14:16.550Z,12.27
2022-09-05T22:17:21.429Z,13.02
2022-09-05T22:20:24.151Z,13.27
2022-09-05T22:23:30.812Z,11.30
2022-09-05T22:27:11.197Z,11.77
2022-09-05T22:30:08.577Z,12.27
2022-09-05T22:33:13.081Z,11.15
2022-09-05T22:36:16.068Z,9.73
2022-09-05T22:39:37.419Z,11.30
2022-09-05T22:42:42.398Z,11.80
2022-09-05T22:45:45.128Z,12.07
2022-09-05T22:48:48.128Z,10.43
2022-09-05T22:51:52.248Z,11.27
2022-09-05T22:54:55.237Z,12.83
2022-09-05T22:57:57.884Z,15.07
2022-09-05T23:01:01.750Z,12.43
2022-09-05T23:04:06.099Z,12.75
2022-09-05T23:07:09.837Z,13.50
2022-09-05T23:10:12.529Z,14.50
2022-09-05T23:13:15.592Z,10.73
2022-09-05T23:16:18.365Z,10.82
2022-09-05T23:19:21.291Z,12.15
2022-09-05T23:22:23.968Z,11.88
2022-09-05T23:25:27.017Z,10.10
2022-09-05T23:28:32.230Z,14.60
2022-09-05T23:31:35.379Z,12.10
2022-09-05T23:34:38.859Z,10.82
2022-09-05T23:37:45.923Z,11.20
2022-09-05T23:40:48.586Z,10.47
2022-09-05T23:43:52.546Z,12.30
2022-09-05T23:46:55.218Z,12.43
2022-09-05T23:49:58.219Z,9.73
2022-09-05T23:53:04.430Z,14.50
2022-09-05T23:56:09.393Z,10.70
2022-09-05T23:59:12.248Z,10.60
